createdAt,value
2023-04-07T00:02:19.729Z,12.05
2023-04-07T00:06:33.022Z,13.00
2023-04-07T00:10:45.884Z,13.15
2023-04-07T00:14:58.322Z,13.13
2023-04-07T00:19:10.760Z,11.55
2023-04-07T00:23:23.128Z,11.80
2023-04-07T00:27:35.573Z,11.98
2023-04-07T00:31:48.136Z,11.20
2023-04-07T00:36:00.730Z,11.50
2023-04-07T00:40:13.332Z,11.45
2023-04-07T00:44:26.861Z,11.75
2023-04-07T00:48:39.286Z,11.15
2023-04-07T00:52:51.992Z,11.07
2023-04-07T00:57:04.485Z,10.90
2023-04-07T01:01:24.620Z,11.50
2023-04-07T01:05:46.856Z,11.30
2023-04-07T01:10:03.827Z,10.85
2023-04-07T01:14:25.292Z,10.98
2023-04-07T01:18:51.520Z,10.13
2023-04-07T01:23:07.565Z,10.52
2023-04-07T01:27:38.760Z,10.93
2023-04-07T01:31:51.837Z,9.85
2023-04-07T01:36:07.027Z,10.40
2023-04-07T01:40:21.921Z,12.98
2023-04-07T01:44:36.055Z,11.93
2023-04-07T01:48:49.394Z,11.73
2023-04-07T01:53:04.037Z,11.57
2023-04-07T01:57:16.637Z,11.82
2023-04-07T02:01:30.119Z,10.30
2023-04-07T02:05:43.692Z,11.75
2023-04-07T02:10:01.440Z,11.65
2023-04-07T02:14:16.249Z,12.13
2023-04-07T02:18:47.416Z,12.02
2023-04-07T02:22:59.995Z,11.73
2023-04-07T02:27:12.601Z,13.55
2023-04-07T02:31:25.131Z,14.07
2023-04-07T02:35:38.964Z,13.90
2023-04-07T02:39:51.650Z,14.45
2023-04-07T02:44:06.004Z,13.85
2023-04-07T02:48:18.502Z,13.50
2023-04-07T02:52:31.098Z,13.02
2023-04-07T02:56:43.721Z,12.95
2023-04-07T03:00:56.303Z,13.65
2023-04-07T03:05:12.676Z,13.10
2023-04-07T03:09:25.197Z,15.52
2023-04-07T03:13:37.725Z,15.35
2023-04-07T03:17:50.396Z,16.75
2023-04-07T03:22:03.493Z,16.38
2023-04-07T03:26:20.789Z,16.98
2023-04-07T03:30:33.767Z,16.63
2023-04-07T03:34:46.314Z,16.52
2023-04-07T03:39:00.202Z,15.65
2023-04-07T03:43:16.079Z,16.65
2023-04-07T03:47:30.375Z,16.73
2023-04-07T03:51:46.962Z,17.00
2023-04-07T03:56:01.656Z,15.77
2023-04-07T04:00:32.080Z,16.83
2023-04-07T04:04:54.166Z,5.50
2023-04-07T04:09:08.998Z,15.15
2023-04-07T04:13:25.964Z,12.70
2023-04-07T04:17:39.504Z,12.23
2023-04-07T04:21:53.189Z,12.45
2023-04-07T04:26:07.204Z,12.88
2023-04-07T04:30:20.264Z,12.55
2023-04-07T04:34:39.864Z,12.27
2023-04-07T04:38:52.408Z,12.57
2023-04-07T04:43:09.268Z,12.90
2023-04-07T04:47:24.039Z,13.00
2023-04-07T04:51:36.966Z,12.55
2023-04-07T04:55:57.720Z,12.55
2023-04-07T05:00:21.511Z,12.07
2023-04-07T05:04:37.657Z,11.70
2023-04-07T05:09:16.252Z,11.90
2023-04-07T05:13:31.496Z,11.15
2023-04-07T05:17:50.842Z,11.93
2023-04-07T05:22:08.697Z,11.75
2023-04-07T05:26:28.527Z,14.18
2023-04-07T05:30:40.998Z,9.95
2023-04-07T05:34:53.741Z,10.52
2023-04-07T05:39:07.720Z,10.30
2023-04-07T05:43:20.230Z,10.13
2023-04-07T05:47:33.065Z,9.50
2023-04-07T05:51:47.470Z,10.30
2023-04-07T05:56:01.793Z,9.75
2023-04-07T06:00:28.330Z,10.07
2023-04-07T06:04:56.418Z,9.60
2023-04-07T06:09:10.234Z,9.82
2023-04-07T06:13:22.821Z,9.15
2023-04-07T06:17:35.278Z,9.85
2023-04-07T06:21:47.702Z,10.18
2023-04-07T06:26:00.883Z,9.63
2023-04-07T06:30:15.647Z,11.02
2023-04-07T06:34:28.129Z,10.95
2023-04-07T06:38:40.614Z,9.88
2023-04-07T06:42:54.907Z,11.02
2023-04-07T06:47:17.144Z,10.55
2023-04-07T06:51:29.606Z,9.20
2023-04-07T06:55:42.637Z,8.02
2023-04-07T06:59:55.095Z,9.32
2023-04-07T07:04:07.717Z,9.38
2023-04-07T07:08:20.253Z,8.48
2023-04-07T07:12:33.671Z,6.45
2023-04-07T07:16:46.095Z,6.75
2023-04-07T07:20:58.650Z,7.03
2023-04-07T07:25:11.243Z,6.90
2023-04-07T07:29:23.767Z,6.57
2023-04-07T07:33:36.265Z,6.32
2023-04-07T07:37:49.185Z,6.80
2023-04-07T07:42:01.879Z,7.85
2023-04-07T07:46:14.332Z,7.68
2023-04-07T07:50:26.806Z,7.57
2023-04-07T07:54:39.239Z,6.10
2023-04-07T07:58:52.729Z,6.28
2023-04-07T08:03:05.224Z,7.18
2023-04-07T08:07:17.730Z,6.82
2023-04-07T08:11:30.091Z,6.18
2023-04-07T08:15:42.608Z,5.93
2023-04-07T08:19:55.005Z,6.40
2023-04-07T08:24:08.111Z,6.38
2023-04-07T08:28:21.483Z,6.10
2023-04-07T08:32:42.117Z,3.80
2023-04-07T08:36:54.717Z,4.28
2023-04-07T08:41:12.821Z,4.40
2023-04-07T08:45:28.790Z,5.45
2023-04-07T08:49:45.236Z,4.63
2023-04-07T08:54:14.727Z,5.13
2023-04-07T08:58:27.922Z,4.60
2023-04-07T09:02:43.919Z,4.88
2023-04-07T09:06:56.628Z,5.00
2023-04-07T09:11:09.235Z,4.97
2023-04-07T09:15:22.845Z,4.50
2023-04-07T09:19:35.599Z,4.95
2023-04-07T09:23:48.528Z,4.63
2023-04-07T09:28:03.515Z,4.95
2023-04-07T09:32:41.775Z,4.90
2023-04-07T09:36:54.954Z,4.45
2023-04-07T09:41:12.879Z,4.47
2023-04-07T09:49:56.348Z,4.55
2023-04-07T09:54:09.336Z,4.60
2023-04-07T09:58:22.242Z,4.82
2023-04-07T10:02:36.222Z,4.40
2023-04-07T10:06:48.899Z,4.35
2023-04-07T10:11:05.464Z,4.28
2023-04-07T10:15:18.149Z,4.20
2023-04-07T10:19:35.033Z,3.92
2023-04-07T10:24:16.200Z,4.05
2023-04-07T10:28:30.130Z,3.90
2023-04-07T10:32:50.393Z,3.70
2023-04-07T10:37:11.237Z,3.70
2023-04-07T10:41:40.767Z,3.45
2023-04-07T10:45:56.553Z,3.37
2023-04-07T10:50:17.311Z,3.50
2023-04-07T10:54:30.002Z,3.25
2023-04-07T10:58:42.797Z,3.47
2023-04-07T11:02:55.472Z,3.97
2023-04-07T11:07:08.127Z,4.03
2023-04-07T11:11:42.176Z,3.97
2023-04-07T11:15:55.021Z,4.57
2023-04-07T11:20:08.374Z,4.55
2023-04-07T11:24:39.559Z,5.15
2023-04-07T11:28:54.366Z,5.45
2023-04-07T11:33:08.086Z,6.15
2023-04-07T11:37:22.469Z,5.13
2023-04-07T11:41:47.078Z,4.45
2023-04-07T11:46:16.478Z,4.72
2023-04-07T11:50:42.826Z,4.10
2023-04-07T11:54:55.749Z,4.35
2023-04-07T11:59:08.273Z,4.03
2023-04-07T12:03:21.082Z,4.20
2023-04-07T12:07:34.138Z,3.60
2023-04-07T12:11:50.757Z,3.90
2023-04-07T12:16:03.661Z,4.13
2023-04-07T12:20:16.924Z,3.80
2023-04-07T12:24:29.300Z,4.22
2023-04-07T12:28:41.946Z,3.53
2023-04-07T12:32:54.852Z,3.42
2023-04-07T12:37:07.496Z,3.28
2023-04-07T12:41:20.117Z,3.33
2023-04-07T12:45:32.897Z,3.70
2023-04-07T12:49:45.441Z,3.20
2023-04-07T12:53:57.822Z,3.60
2023-04-07T12:58:10.515Z,3.13
2023-04-07T13:02:23.193Z,3.58
2023-04-07T13:06:35.777Z,3.58
2023-04-07T13:10:48.274Z,3.90
2023-04-07T13:15:01.139Z,3.42
2023-04-07T13:19:13.890Z,3.40
2023-04-07T13:23:26.582Z,3.75
2023-04-07T13:27:39.084Z,3.60
2023-04-07T13:31:51.515Z,2.92
2023-04-07T13:36:04.042Z,3.38
2023-04-07T13:40:16.485Z,3.17
2023-04-07T13:44:29.688Z,3.47
2023-04-07T13:48:42.631Z,3.60
2023-04-07T13:52:55.065Z,3.95
2023-04-07T13:57:07.674Z,3.70
2023-04-07T14:01:20.170Z,4.05
2023-04-07T14:05:32.674Z,3.05
2023-04-07T14:09:46.526Z,3.17
2023-04-07T14:13:58.964Z,3.42
2023-04-07T14:18:11.389Z,3.05
2023-04-07T14:22:23.919Z,3.30
2023-04-07T14:26:36.382Z,3.20
2023-04-07T14:30:48.834Z,2.78
2023-04-07T14:35:01.636Z,3.03
2023-04-07T14:39:14.909Z,3.08
2023-04-07T14:43:28.116Z,3.40
2023-04-07T14:47:40.619Z,3.28
2023-04-07T14:51:53.801Z,3.50
2023-04-07T14:56:07.038Z,3.30
2023-04-07T15:00:19.686Z,3.22
2023-04-07T15:04:32.389Z,3.75
2023-04-07T15:08:45.090Z,3.75
2023-04-07T15:12:57.519Z,3.30
2023-04-07T15:17:09.870Z,3.17
2023-04-07T15:21:22.163Z,3.40
2023-04-07T15:25:34.620Z,3.33
2023-04-07T15:29:47.442Z,3.75
2023-04-07T15:33:59.950Z,3.30
2023-04-07T15:38:12.437Z,3.80
2023-04-07T15:42:24.858Z,3.60
2023-04-07T15:46:37.388Z,4.15
2023-04-07T15:50:49.930Z,4.65
2023-04-07T15:55:02.412Z,3.80
2023-04-07T15:59:15.823Z,4.20
2023-04-07T16:03:29.307Z,3.95
2023-04-07T16:07:41.884Z,4.28
2023-04-07T16:11:55.269Z,4.47
2023-04-07T16:16:07.993Z,3.50
2023-04-07T16:20:20.703Z,3.78
2023-04-07T16:24:33.173Z,4.60
2023-04-07T16:28:45.560Z,4.68
2023-04-07T16:32:58.298Z,4.97
2023-04-07T16:37:10.742Z,3.97
2023-04-07T16:41:23.277Z,4.13
2023-04-07T16:45:36.018Z,7.05
2023-04-07T16:49:48.380Z,4.97
2023-04-07T16:54:00.955Z,5.88
2023-04-07T16:58:13.383Z,5.30
2023-04-07T17:02:28.326Z,5.72
2023-04-07T17:06:40.870Z,5.72
2023-04-07T17:10:53.316Z,5.65
2023-04-07T17:15:07.106Z,6.05
2023-04-07T17:19:19.558Z,6.32
2023-04-07T17:23:32.148Z,6.43
2023-04-07T17:27:44.592Z,7.35
2023-04-07T17:31:57.337Z,6.85
2023-04-07T17:36:09.779Z,6.57
2023-04-07T17:40:22.715Z,7.63
2023-04-07T17:44:35.162Z,8.98
2023-04-07T17:48:48.385Z,11.00
2023-04-07T17:53:01.158Z,10.65
2023-04-07T17:57:14.718Z,10.18
2023-04-07T18:01:27.346Z,10.80
2023-04-07T18:05:44.196Z,11.73
2023-04-07T18:09:58.282Z,12.20
2023-04-07T18:14:10.746Z,12.20
2023-04-07T18:18:23.203Z,12.93
2023-04-07T18:22:35.744Z,11.90
2023-04-07T18:26:48.332Z,11.65
2023-04-07T18:31:02.779Z,11.68
2023-04-07T18:35:16.857Z,11.82
2023-04-07T18:39:29.213Z,12.65
2023-04-07T18:43:42.536Z,12.05
2023-04-07T18:47:55.160Z,14.38
2023-04-07T18:52:08.108Z,13.88
2023-04-07T18:56:22.992Z,15.45
2023-04-07T19:00:35.651Z,15.55
2023-04-07T19:04:48.298Z,16.83
2023-04-07T19:09:00.826Z,16.83
2023-04-07T19:13:13.315Z,19.05
2023-04-07T19:17:28.737Z,19.30
2023-04-07T19:21:41.539Z,18.67
2023-04-07T19:25:54.154Z,18.90
2023-04-07T19:30:07.210Z,21.20
2023-04-07T19:34:21.421Z,21.48
2023-04-07T19:38:33.859Z,19.70
2023-04-07T19:42:46.171Z,19.75
2023-04-07T19:46:58.717Z,21.45
2023-04-07T19:51:11.348Z,20.08
2023-04-07T19:55:24.299Z,20.65
2023-04-07T19:59:36.719Z,20.13
2023-04-07T20:03:49.454Z,20.15
2023-04-07T20:08:02.182Z,17.90
2023-04-07T20:12:15.223Z,16.83
2023-04-07T20:16:30.268Z,13.70
2023-04-07T20:20:42.698Z,14.68
2023-04-07T20:24:55.368Z,13.43
2023-04-07T20:29:08.479Z,12.38
2023-04-07T20:33:21.059Z,12.68
2023-04-07T20:37:33.567Z,11.50
2023-04-07T20:41:46.170Z,11.85
2023-04-07T20:45:59.609Z,11.30
2023-04-07T20:50:12.167Z,10.70
2023-04-07T20:54:24.565Z,10.85
2023-04-07T20:58:37.496Z,10.63
2023-04-07T21:02:50.162Z,11.20
2023-04-07T21:07:02.700Z,9.75
2023-04-07T21:11:15.030Z,9.63
2023-04-07T21:15:27.473Z,9.82
2023-04-07T21:19:40.046Z,9.77
2023-04-07T21:23:52.482Z,9.10
2023-04-07T21:28:04.921Z,8.80
2023-04-07T21:32:17.259Z,7.97
2023-04-07T21:36:29.574Z,8.48
2023-04-07T21:40:42.333Z,7.50
2023-04-07T21:44:54.599Z,7.50
2023-04-07T21:49:07.232Z,7.57
2023-04-07T21:53:19.757Z,7.68
2023-04-07T21:57:32.399Z,7.85
2023-04-07T22:01:47.222Z,8.18
2023-04-07T22:06:00.444Z,8.10
2023-04-07T22:10:13.288Z,7.45
2023-04-07T22:14:26.685Z,7.50
2023-04-07T22:18:39.178Z,11.98
2023-04-07T22:22:51.761Z,7.57
2023-04-07T22:27:06.502Z,7.65
2023-04-07T22:31:18.955Z,7.43
2023-04-07T22:35:31.806Z,7.57
2023-04-07T22:39:46.527Z,7.70
2023-04-07T22:44:00.432Z,7.53
2023-04-07T22:48:12.981Z,7.90
2023-04-07T22:52:25.611Z,7.50
2023-04-07T22:56:38.088Z,7.30
2023-04-07T23:00:50.736Z,7.45
2023-04-07T23:05:03.588Z,7.25
2023-04-07T23:09:16.050Z,7.25
2023-04-07T23:13:28.809Z,7.53
2023-04-07T23:17:41.518Z,7.28
2023-04-07T23:21:53.998Z,7.00
2023-04-07T23:26:09.281Z,7.45
2023-04-07T23:30:21.783Z,7.68
2023-04-07T23:34:34.279Z,7.00
2023-04-07T23:38:47.144Z,7.43
2023-04-07T23:42:59.525Z,7.57
2023-04-07T23:47:11.858Z,7.55
2023-04-07T23:51:24.223Z,8.05
2023-04-07T23:55:36.582Z,8.00
2023-04-07T23:59:48.945Z,8.50
